Time;durP1;ratioP1;P1;durP2;ratioP2;P2;SDS_P1;SDS_P2;PMS_P1;PMS_P2;Temp;Humidity;BMP_temperature;BMP_pressure;BME280_temperature;BME280_humidity;BME280_pressure;Samples;Min_cycle;Max_cycle;Signal;HPM_P1;HPM_P2
2023/01/15 00:03:00;;;;;;;7.60;3.30;;;;;;;6.83;100.00;99339.22;4824551;59;1136817;-74
2023/01/15 00:08:06;;;;;;;6.60;2.73;;;;;;;6.88;100.00;99352.80;4834015;60;1136921;-71
2023/01/15 00:13:12;;;;;;;7.67;2.10;;;;;;;6.89;100.00;99368.92;4824544;60;1134920;-78
2023/01/15 00:18:19;;;;;;;10.20;2.90;;;;;;;6.94;100.00;99360.67;4810145;60;1136916;-78
2023/01/15 00:28:50;;;;;;;5.20;2.07;;;;;;;7.02;100.00;99333.30;4597346;62;1136691;-71
2023/01/15 00:33:56;;;;;;;5.37;1.70;;;;;;;7.06;100.00;99325.02;4746285;59;1134598;-83
2023/01/15 00:39:02;;;;;;;9.30;2.20;;;;;;;7.12;100.00;99316.28;4713953;61;1136936;-72
2023/01/15 00:44:08;;;;;;;6.42;1.82;;;;;;;7.12;100.00;99293.45;4710463;61;1134646;-76
2023/01/15 00:49:14;;;;;;;8.00;2.47;;;;;;;7.21;100.00;99266.38;4815292;60;1136731;-76
2023/01/15 00:54:22;;;;;;;8.23;2.10;;;;;;;7.25;100.00;99262.55;4843338;60;1134690;-76
2023/01/15 00:59:28;;;;;;;5.17;2.47;;;;;;;7.29;100.00;99249.50;4815215;60;1136907;-73
2023/01/15 01:04:34;;;;;;;3.20;1.57;;;;;;;7.34;100.00;99240.72;4824472;60;1136788;-73
2023/01/15 01:09:41;;;;;;;5.93;1.53;;;;;;;7.38;100.00;99236.88;4867224;59;1134598;-71
2023/01/15 01:14:47;;;;;;;4.17;1.40;;;;;;;7.48;100.00;99260.62;4850274;59;1136851;-69
2023/01/15 01:19:53;;;;;;;2.90;1.62;;;;;;;7.54;100.00;99245.61;4822124;59;1134741;-69
2023/01/15 01:25:00;;;;;;;2.12;1.55;;;;;;;7.63;100.00;99234.80;5019196;57;1136617;-76
2023/01/15 01:30:06;;;;;;;4.33;1.23;;;;;;;7.70;100.00;99215.70;5005801;57;1136734;-75
2023/01/15 01:35:12;;;;;;;3.33;1.17;;;;;;;7.76;100.00;99224.88;4845229;58;1136714;-79
2023/01/15 01:40:19;;;;;;;3.60;0.90;;;;;;;7.85;100.00;99200.37;4721227;60;1136716;-79
2023/01/15 01:45:28;;;;;;;0.90;0.83;;;;;;;7.87;100.00;99197.12;4815880;59;1134750;-75
2023/01/15 01:50:37;;;;;;;1.63;1.03;;;;;;;7.94;100.00;99198.76;4886421;59;1136849;-79
2023/01/15 01:55:44;;;;;;;4.03;1.27;;;;;;;7.99;100.00;99188.16;5024880;57;1136621;-70
2023/01/15 02:00:53;;;;;;;3.13;1.00;;;;;;;7.98;100.00;99161.95;4913059;58;1134651;-70
2023/01/15 02:06:02;;;;;;;4.75;1.00;;;;;;;8.03;100.00;99179.02;4912528;58;1136722;-74
2023/01/15 02:11:14;;;;;;;3.52;1.00;;;;;;;8.07;100.00;99156.72;4931466;58;1136806;-73
2023/01/15 02:16:49;;;;;;;1.73;0.90;;;;;;;8.09;100.00;99138.16;4912045;57;1137105;-80
2023/01/15 02:22:06;;;;;;;0.77;0.77;;;;;;;8.12;100.00;99143.12;4893108;58;1136838;-76
2023/01/15 02:27:22;;;;;;;1.47;1.13;;;;;;;8.11;100.00;99112.02;4846458;59;1143012;-73
2023/01/15 02:32:46;;;;;;;2.53;0.90;;;;;;;8.17;100.00;99115.08;4849369;59;1136854;-72
2023/01/15 02:37:56;;;;;;;1.67;0.90;;;;;;;8.18;100.00;99123.33;4775307;59;1136607;-74
2023/01/15 02:43:03;;;;;;;2.22;1.55;;;;;;;8.17;100.00;99115.08;4837269;58;1134656;-80
2023/01/15 02:48:15;;;;;;;3.67;1.10;;;;;;;8.18;100.00;99112.30;4901909;58;1136747;-74
2023/01/15 02:53:26;;;;;;;6.03;0.80;;;;;;;8.19;100.00;99113.14;4912070;57;1136845;-73
2023/01/15 02:58:37;;;;;;;2.67;0.83;;;;;;;8.20;100.00;99100.32;4912174;57;1136874;-80
2023/01/15 03:03:51;;;;;;;2.70;0.97;;;;;;;8.22;100.00;99096.58;4931956;58;1136800;-75
2023/01/15 03:08:57;;;;;;;7.90;2.75;;;;;;;8.24;100.00;99108.30;4912328;57;1136784;-75
2023/01/15 03:14:09;;;;;;;1.17;0.77;;;;;;;8.26;100.00;99100.58;4883988;59;1136886;-75
2023/01/15 03:19:48;;;;;;;2.57;1.00;;;;;;;8.25;100.00;99093.64;4841649;60;1136730;-79
2023/01/15 03:25:12;;;;;;;0.87;0.80;;;;;;;8.25;100.00;99098.91;4820422;59;1137004;-73
2023/01/15 03:30:22;;;;;;;2.33;0.90;;;;;;;8.27;100.00;99079.86;4740121;60;1136926;-76
2023/01/15 03:35:51;;;;;;;5.60;1.60;;;;;;;8.33;100.00;99083.78;4827875;60;1137061;-77
2023/01/15 03:41:27;;;;;;;4.33;1.47;;;;;;;8.32;100.00;99063.67;4770550;59;1136693;-77
2023/01/15 03:46:57;;;;;;;1.47;0.90;;;;;;;8.29;100.00;99056.84;4819409;59;1136627;-79
2023/01/15 03:52:14;;;;;;;3.75;1.20;;;;;;;8.23;100.00;99059.23;4892677;59;1136916;-70
2023/01/15 03:57:33;;;;;;;1.20;0.80;;;;;;;8.20;100.00;99054.23;4804129;59;1137041;-78
2023/01/15 04:02:42;;;;;;;0.90;0.83;;;;;;;8.19;100.00;99052.56;4800279;59;1136920;-81
2023/01/15 04:07:51;;;;;;;1.47;1.05;;;;;;;8.20;100.00;99029.22;4824416;59;1136871;-69
2023/01/15 04:12:57;;;;;;;3.33;2.03;;;;;;;8.21;100.00;99017.70;4898976;58;1137263;-77
2023/01/15 04:18:03;;;;;;;6.15;1.40;;;;;;;8.18;100.00;99012.72;4961763;57;1136718;-72
2023/01/15 04:23:10;;;;;;;4.35;0.98;;;;;;;8.14;100.00;99010.84;5004117;57;1136671;-72
2023/01/15 04:28:15;;;;;;;3.37;1.43;;;;;;;8.10;100.00;99001.07;4950986;57;1136646;-65
2023/01/15 04:33:21;;;;;;;4.53;1.27;;;;;;;8.07;100.00;98993.96;4954134;56;1136903;-80
2023/01/15 04:38:28;;;;;;;6.27;1.73;;;;;;;8.07;100.00;99001.86;4919332;58;1136883;-72
2023/01/15 04:48:57;;;;;;;0.72;0.65;;;;;;;8.09;100.00;98977.54;5004632;56;1136940;-72
2023/01/15 04:54:05;;;;;;;0.87;0.70;;;;;;;8.04;100.00;98987.66;4929627;57;1136799;-76
2023/01/15 04:59:14;;;;;;;0.50;0.50;;;;;;;8.04;100.00;98987.66;4974513;57;1136718;-79
2023/01/15 05:04:20;;;;;;;3.43;1.33;;;;;;;7.97;100.00;98982.10;5004500;57;1136556;-68
2023/01/15 05:09:26;;;;;;;2.37;0.83;;;;;;;7.89;100.00;98967.51;5023559;57;1136784;-73
2023/01/15 05:14:32;;;;;;;4.07;1.10;;;;;;;7.81;100.00;98959.95;4910272;58;1136773;-76
2023/01/15 05:19:38;;;;;;;1.20;0.60;;;;;;;7.72;100.00;98951.09;4977896;57;1136932;-80
2023/01/15 05:24:44;;;;;;;1.23;0.97;;;;;;;7.65;100.00;98948.66;4851113;59;1136760;-74
2023/01/15 05:29:50;;;;;;;1.80;1.17;;;;;;;7.58;100.00;98954.15;4923631;58;1136601;-81
2023/01/15 05:34:56;;;;;;;1.63;1.10;;;;;;;7.52;100.00;98950.26;4841222;59;1136943;-77
2023/01/15 05:40:01;;;;;;;1.83;1.10;;;;;;;7.44;100.00;98953.25;4832379;59;1136738;-76
2023/01/15 05:45:08;;;;;;;1.55;0.80;;;;;;;7.35;100.00;98957.03;4870970;58;1136821;-73
2023/01/15 05:50:14;;;;;;;2.20;0.70;;;;;;;7.28;100.00;98962.50;5004215;57;1136791;-73
2023/01/15 05:55:20;;;;;;;1.50;0.97;;;;;;;7.22;100.00;98951.69;4929356;58;1136722;-73
2023/01/15 06:00:26;;;;;;;3.20;1.00;;;;;;;7.16;100.00;98952.25;5004428;56;1136713;-70
2023/01/15 06:05:32;;;;;;;1.97;0.90;;;;;;;7.12;100.00;98949.53;4941000;57;1136682;-76
2023/01/15 06:10:38;;;;;;;1.33;0.80;;;;;;;7.13;100.00;98947.25;4943145;58;1136657;-78
2023/01/15 06:15:44;;;;;;;1.50;0.85;;;;;;;7.13;100.00;98942.00;4927543;58;1137090;-75
2023/01/15 06:20:50;;;;;;;2.30;1.13;;;;;;;7.14;100.00;98935.29;4960151;58;1136919;-76
2023/01/15 06:26:01;;;;;;;1.27;0.93;;;;;;;7.13;100.00;98920.48;4971001;58;1136820;-79
2023/01/15 06:31:09;;;;;;;1.37;0.90;;;;;;;7.14;100.00;98924.77;4990031;57;1136778;-77
2023/01/15 06:36:20;;;;;;;0.85;0.85;;;;;;;7.15;100.00;98931.70;4947913;57;1136694;-72
2023/01/15 06:52:16;;;;;;;1.10;0.88;;;;;;;7.19;100.00;98914.66;5048685;56;1136768;-78
2023/01/15 06:57:22;;;;;;;1.10;1.00;;;;;;;7.22;100.00;98923.59;5028815;57;1136721;-79
2023/01/15 07:02:28;;;;;;;2.53;1.47;;;;;;;7.24;100.00;98911.63;5028572;57;1136709;-83
2023/01/15 07:07:35;;;;;;;4.77;2.53;;;;;;;7.25;100.00;98925.95;4913115;58;1136657;-76
2023/01/15 07:12:40;;;;;;;1.43;1.33;;;;;;;7.27;100.00;98909.56;4893575;57;1136924;-74
2023/01/15 07:17:46;;;;;;;1.47;1.37;;;;;;;7.29;100.00;98913.38;4882412;58;1136732;-75
2023/01/15 07:22:52;;;;;;;1.33;0.97;;;;;;;7.33;100.00;98926.09;4831996;59;1136924;-76
2023/01/15 07:27:58;;;;;;;2.63;1.20;;;;;;;7.36;100.00;98922.36;4850627;59;1136843;-72
2023/01/15 07:33:04;;;;;;;1.02;0.88;;;;;;;7.37;100.00;98907.75;4812645;59;1146176;-78
2023/01/15 07:38:12;;;;;;;1.67;1.40;;;;;;;7.39;100.00;98906.30;4774091;60;1136683;-78
2023/01/15 07:54:05;;;;;;;1.14;1.10;;;;;;;7.53;100.00;98905.05;4823472;59;1136774;-70
2023/01/15 07:59:11;;;;;;;1.50;1.33;;;;;;;7.56;100.00;98902.16;4795948;59;1136735;-68
2023/01/15 08:04:16;;;;;;;3.40;1.17;;;;;;;7.61;100.00;98905.20;4809898;58;1137096;-71
2023/01/15 08:09:24;;;;;;;2.73;1.63;;;;;;;7.64;100.00;98916.26;4776931;59;1136770;-66
2023/01/15 08:15:15;;;;;;;2.20;1.20;;;;;;;7.66;100.00;98897.22;4833178;59;1136715;-73
2023/01/15 08:19:40;;;;;;;2.27;1.77;;;;;;;7.68;100.00;98897.91;4787192;59;1136689;-74
2023/01/15 08:24:46;;;;;;;3.70;2.93;;;;;;;7.75;100.00;98896.39;4786458;59;1136794;-75
2023/01/15 08:29:53;;;;;;;3.77;2.17;;;;;;;7.75;100.00;98896.39;4833588;59;1136699;-72
2023/01/15 08:34:59;;;;;;;8.05;3.47;;;;;;;7.79;100.00;98894.80;4792452;59;1136795;-70
2023/01/15 08:40:06;;;;;;;5.17;2.10;;;;;;;7.82;100.00;98897.96;4788559;60;1136856;-75
2023/01/15 08:45:13;;;;;;;5.55;3.33;;;;;;;7.84;100.00;98902.60;4801596;59;1136849;-72
2023/01/15 08:50:18;;;;;;;1.22;0.93;;;;;;;7.88;100.00;98899.20;4820662;59;1136841;-72
2023/01/15 08:55:24;;;;;;;0.80;0.80;;;;;;;7.91;100.00;98901.56;4794340;59;1136680;-79
2023/01/15 09:00:30;;;;;;;0.93;0.83;;;;;;;7.96;100.00;98902.78;4837852;58;1136643;-74
2023/01/15 09:05:37;;;;;;;2.73;1.00;;;;;;;8.00;100.00;98901.53;4783218;59;1136728;-81
2023/01/15 09:10:44;;;;;;;8.10;4.50;;;;;;;8.04;100.00;98908.66;4764754;60;1136898;-76
2023/01/15 09:15:49;;;;;;;3.00;2.80;;;;;;;8.07;100.00;98912.34;4773775;60;1136701;-69
2023/01/15 09:20:55;;;;;;;3.07;1.77;;;;;;;8.06;100.00;98922.52;4776147;59;1137237;-82
2023/01/15 09:26:06;;;;;;;4.53;3.60;;;;;;;8.06;100.00;98922.04;4858552;59;1136767;-71
2023/01/15 09:31:12;;;;;;;0.70;0.70;;;;;;;8.08;100.00;98939.02;4872504;59;1136752;-73
2023/01/15 09:36:28;;;;;;;1.57;1.30;;;;;;;7.92;100.00;98983.52;4779227;59;1136880;-72
2023/01/15 09:42:15;;;;;;;1.63;1.53;;;;;;;7.25;100.00;98992.17;4777760;59;1136821;-72
2023/01/15 09:47:54;;;;;;;1.03;0.93;;;;;;;6.17;100.00;99017.27;4849484;58;1136711;-79
2023/01/15 09:53:37;;;;;;;6.53;4.10;;;;;;;6.17;100.00;99017.27;4853633;59;1136772;-77
2023/01/15 09:58:44;;;;;;;6.70;2.47;;;;;;;5.92;100.00;99046.86;4872532;58;1136759;-80
2023/01/15 10:04:18;;;;;;;5.77;2.60;;;;;;;5.73;100.00;99055.84;4853389;58;1136819;-75
2023/01/15 10:09:33;;;;;;;7.83;3.12;;;;;;;5.68;100.00;99065.02;4828734;59;1136740;-71
2023/01/15 10:14:49;;;;;;;3.87;1.73;;;;;;;5.58;100.00;99067.09;4745979;59;1136769;-76
2023/01/15 10:19:57;;;;;;;3.12;1.80;;;;;;;5.60;100.00;99065.66;4769083;59;1136714;-72
2023/01/15 10:25:08;;;;;;;2.87;1.95;;;;;;;5.66;100.00;99058.59;4868026;59;1136776;-77
2023/01/15 10:30:44;;;;;;;2.57;1.47;;;;;;;5.71;100.00;99066.09;4765828;58;1136821;-71
2023/01/15 10:36:06;;;;;;;4.17;3.33;;;;;;;5.73;100.00;99076.83;4763783;60;1136686;-74
2023/01/15 10:41:33;;;;;;;1.00;0.90;;;;;;;5.72;100.00;99076.47;4696033;59;1136778;-75
2023/01/15 10:46:41;;;;;;;10.93;7.67;;;;;;;5.68;100.00;99065.86;4935955;58;1136839;-68
2023/01/15 10:52:09;;;;;;;4.00;2.60;;;;;;;5.70;100.00;99064.42;4939838;58;1138717;-79
2023/01/15 10:57:23;;;;;;;2.52;1.47;;;;;;;5.68;100.00;99066.34;4939212;58;1136758;-72
2023/01/15 11:02:38;;;;;;;4.25;1.30;;;;;;;5.67;100.00;99091.73;4940559;58;1136935;-74
2023/01/15 11:07:50;;;;;;;3.80;1.10;;;;;;;5.64;100.00;99078.41;5004769;57;1136794;-82
2023/01/15 11:24:16;;;;;;;2.80;1.00;;;;;;;5.62;100.00;99091.28;4927707;58;1136568;-73
2023/01/15 11:29:35;;;;;;;2.47;1.03;;;;;;;5.58;100.00;99080.67;4940910;58;1136876;-72
2023/01/15 11:34:41;;;;;;;1.87;0.80;;;;;;;5.55;100.00;99088.78;4914823;58;1136642;-74
2023/01/15 11:40:08;;;;;;;1.43;0.47;;;;;;;5.53;100.00;99104.63;4928236;58;1136765;-73
2023/01/15 11:50:58;;;;;;;12.63;6.93;;;;;;;5.61;100.00;99097.01;4952723;57;1136600;-76
2023/01/15 11:56:10;;;;;;;11.30;7.43;;;;;;;5.65;100.00;99108.90;4914431;58;1138667;-79
2023/01/15 12:01:32;;;;;;;15.45;6.87;;;;;;;5.70;100.00;99090.66;4922589;57;1138868;-75
2023/01/15 12:06:41;;;;;;;14.47;4.37;;;;;;;5.71;100.00;99091.84;4933997;57;1138925;-74
2023/01/15 12:12:15;;;;;;;5.10;2.00;;;;;;;5.72;100.00;99100.08;4885743;57;1138943;-79
2023/01/15 12:17:37;;;;;;;2.33;1.62;;;;;;;5.69;100.00;99109.97;4934686;57;1136942;-81
2023/01/15 12:23:12;;;;;;;5.07;3.43;;;;;;;5.62;100.00;99111.79;4854442;58;1136921;-74
2023/01/15 12:28:19;;;;;;;;;;;;;;;5.57;100.00;99118.34;4787603;59;1136863;-81
2023/01/15 12:33:50;;;;;;;8.57;5.53;;;;;;;5.54;100.00;99133.84;4816927;59;973951;-78
2023/01/15 12:39:05;;;;;;;14.77;9.87;;;;;;;5.49;100.00;99145.66;4809916;59;1134916;-72
2023/01/15 12:49:43;;;;;;;9.60;4.17;;;;;;;5.44;100.00;99147.33;4825170;58;1138972;-75
2023/01/15 12:54:59;;;;;;;6.07;3.40;;;;;;;5.44;100.00;99153.05;4881069;57;1136853;-82
2023/01/15 13:00:21;;;;;;;6.23;3.47;;;;;;;5.41;100.00;99156.73;4969638;57;1136617;-76
2023/01/15 13:05:33;;;;;;;14.75;5.75;;;;;;;5.39;100.00;99148.16;4969971;57;1136579;-77
2023/01/15 13:10:41;;;;;;;3.90;2.10;;;;;;;5.41;100.00;99152.80;4966185;57;1138780;-71
2023/01/15 13:16:15;;;;;;;7.30;2.90;;;;;;;5.42;100.00;99153.16;4947865;57;1136763;-80
2023/01/15 13:21:23;;;;;;;23.27;12.57;;;;;;;5.45;100.00;99142.92;4795590;59;1136690;-70
2023/01/15 13:27:14;;;;;;;14.27;8.70;;;;;;;5.44;100.00;99150.42;4848110;58;1138769;-78
2023/01/15 13:32:31;;;;;;;8.37;4.53;;;;;;;5.40;100.00;99141.13;4790530;59;1138972;-76
2023/01/15 13:37:50;;;;;;;4.73;2.60;;;;;;;5.40;100.00;99145.89;4830088;58;1136674;-72
2023/01/15 13:42:59;;;;;;;18.57;10.57;;;;;;;5.38;100.00;99141.23;4790768;58;1136843;-75
2023/01/15 13:48:15;;;;;;;8.30;3.83;;;;;;;5.37;100.00;99161.02;4825468;58;1141020;-75
2023/01/15 13:53:40;;;;;;;5.58;3.22;;;;;;;5.36;100.00;99170.67;4800048;59;1136706;-76
2023/01/15 13:59:01;;;;;;;13.50;6.97;;;;;;;5.35;100.00;99155.09;4731775;58;1136662;-76
2023/01/15 14:04:17;;;;;;;7.05;4.03;;;;;;;5.35;100.00;99166.88;4783488;59;1138964;-75
2023/01/15 14:09:30;;;;;;;24.55;16.73;;;;;;;5.32;100.00;99170.58;4823990;58;1137076;-67
2023/01/15 14:15:04;;;;;;;11.43;8.53;;;;;;;5.32;100.00;99150.91;4824631;58;1141076;-70
2023/01/15 14:20:43;;;;;;;26.85;12.60;;;;;;;5.28;100.00;99155.55;4798725;59;1139098;-75
2023/01/15 14:25:59;;;;;;;28.50;10.73;;;;;;;5.26;100.00;99148.28;4806489;59;1141152;-73
2023/01/15 14:31:16;;;;;;;200.40;81.87;;;;;;;5.23;100.00;99151.12;4788294;59;1140943;-75
2023/01/15 14:36:30;;;;;;;41.68;14.35;;;;;;;5.18;100.00;99158.53;4835545;59;1142922;-72
2023/01/15 14:43:00;;;;;;;142.15;39.70;;;;;;;5.15;100.00;99168.41;4848693;59;1140844;-75
2023/01/15 14:46:46;;;;;;;86.03;26.67;;;;;;;5.13;100.00;99188.19;4844318;59;1143044;-72
2023/01/15 14:51:52;;;;;;;58.37;18.97;;;;;;;5.11;100.00;99200.56;4848498;59;1140984;-78
2023/01/15 14:57:02;;;;;;;57.77;17.13;;;;;;;5.07;100.00;99189.95;4868308;59;1140858;-74
2023/01/15 15:02:21;;;;;;;69.37;16.87;;;;;;;5.02;100.00;99174.23;4832899;59;1141060;-74
2023/01/15 15:07:34;;;;;;;33.77;10.53;;;;;;;5.01;100.00;99166.02;4839575;59;1141034;-75
2023/01/15 15:12:42;;;;;;;;;;;;;;;5.00;100.00;99156.48;4872173;59;1140877;-76
2023/01/15 15:18:13;;;;;;;32.48;10.80;;;;;;;4.98;100.00;99161.00;4847460;59;974075;-72
2023/01/15 15:23:33;;;;;;;16.67;8.10;;;;;;;4.96;100.00;99189.94;4802799;59;1138870;-76
2023/01/15 15:28:39;;;;;;;25.20;8.33;;;;;;;4.95;100.00;99176.00;4805086;59;1138798;-73
2023/01/15 15:33:45;;;;;;;16.23;9.13;;;;;;;4.95;100.00;99171.23;4790623;59;1138869;-77
2023/01/15 15:39:05;;;;;;;26.47;10.10;;;;;;;4.90;100.00;99196.46;4780826;59;1138957;-77
2023/01/15 15:49:42;;;;;;;16.40;6.53;;;;;;;4.85;100.00;99195.16;4837085;59;1138790;-69
2023/01/15 15:55:02;;;;;;;16.67;6.07;;;;;;;4.83;100.00;99185.27;4804848;59;1138691;-75
2023/01/15 16:00:27;;;;;;;9.90;5.10;;;;;;;4.84;100.00;99208.73;4790230;59;1138870;-71
2023/01/15 16:05:34;;;;;;;12.07;6.57;;;;;;;4.81;100.00;99229.07;4933947;57;1134565;-71
2023/01/15 16:10:40;;;;;;;9.40;4.53;;;;;;;4.82;100.00;99217.17;4955625;57;1136931;-73
2023/01/15 16:15:47;;;;;;;15.80;6.87;;;;;;;4.83;100.00;99225.39;5004210;57;1134617;-73
2023/01/15 16:20:54;;;;;;;11.00;4.43;;;;;;;4.85;100.00;99225.28;4959225;57;1138744;-76
2023/01/15 16:26:10;;;;;;;16.03;8.90;;;;;;;4.88;100.00;99223.28;4853011;57;1138814;-79
2023/01/15 16:31:17;;;;;;;18.62;9.10;;;;;;;4.88;100.00;99221.97;4874256;57;1136738;-72
2023/01/15 16:36:25;;;;;;;10.93;4.22;;;;;;;4.89;100.00;99218.84;4945632;57;1136626;-73
2023/01/15 16:41:36;;;;;;;8.63;4.40;;;;;;;4.89;100.00;99224.91;4935944;57;1136575;-68
2023/01/15 16:46:57;;;;;;;8.03;4.33;;;;;;;4.89;100.00;99245.87;4963209;57;1134598;-75
2023/01/15 16:52:07;;;;;;;10.37;5.23;;;;;;;4.91;100.00;99268.87;4944307;57;1136729;-72
2023/01/15 16:57:34;;;;;;;13.60;5.60;;;;;;;4.92;100.00;99270.54;4979896;57;1138728;-71
2023/01/15 17:02:46;;;;;;;9.40;5.30;;;;;;;4.94;100.00;99284.84;5023871;57;1138603;-72
2023/01/15 17:07:53;;;;;;;12.67;5.13;;;;;;;4.93;100.00;99301.03;5004864;57;1136651;-71
2023/01/15 17:13:00;;;;;;;6.33;3.70;;;;;;;4.93;100.00;99298.89;5004179;57;1138865;-75
2023/01/15 17:18:22;;;;;;;14.00;7.13;;;;;;;4.92;100.00;99303.29;5009699;57;1136719;-76
2023/01/15 17:23:36;;;;;;;11.87;6.23;;;;;;;4.91;100.00;99326.98;5032326;57;1138845;-71
2023/01/15 17:28:41;;;;;;;10.83;5.27;;;;;;;4.92;100.00;99320.79;5004435;57;1138758;-73
2023/01/15 17:33:49;;;;;;;11.60;5.43;;;;;;;4.94;100.00;99333.31;5017205;57;1138617;-72
2023/01/15 17:38:56;;;;;;;7.67;4.63;;;;;;;4.95;100.00;99347.61;5004748;57;1138693;-71
2023/01/15 17:44:02;;;;;;;12.03;5.92;;;;;;;4.94;100.00;99344.63;4997649;57;1136653;-67
2023/01/15 17:49:08;;;;;;;15.30;6.17;;;;;;;4.91;100.00;99339.60;5023878;57;1136623;-76
2023/01/15 18:05:24;;;;;;;10.37;4.97;;;;;;;4.90;100.00;99343.64;5004812;57;1136599;-70
2023/01/15 18:10:17;;;;;;;19.30;7.63;;;;;;;4.83;100.00;99338.03;5004504;57;1136783;-79
2023/01/15 18:15:23;;;;;;;10.47;5.43;;;;;;;4.82;100.00;99346.83;5004358;57;1136658;-68
2023/01/15 18:20:30;;;;;;;21.77;7.22;;;;;;;4.80;100.00;99337.41;4890114;58;1136975;-71
2023/01/15 18:25:38;;;;;;;9.50;4.63;;;;;;;4.78;100.00;99341.92;4769508;60;1136954;-77
2023/01/15 18:30:44;;;;;;;19.43;7.60;;;;;;;4.73;100.00;99340.97;4753502;60;1134546;-72
2023/01/15 18:35:50;;;;;;;10.47;4.70;;;;;;;4.68;100.00;99329.14;4767591;60;1136752;-75
2023/01/15 18:40:56;;;;;;;8.57;4.63;;;;;;;4.66;100.00;99338.41;4842084;59;1136645;-75
2023/01/15 18:51:36;;;;;;;12.83;5.53;;;;;;;4.60;100.00;99350.63;4819993;58;1136707;-73
2023/01/15 18:56:46;;;;;;;10.03;5.80;;;;;;;4.57;100.00;99366.11;4804611;60;1136797;-74
2023/01/15 19:01:49;;;;;;;6.80;4.70;;;;;;;4.52;100.00;99362.97;4873658;58;1136822;-75
2023/01/15 19:06:55;;;;;;;11.47;4.40;;;;;;;4.51;100.00;99373.55;4809521;59;1134764;-72
2023/01/15 19:12:01;;;;;;;6.70;3.80;;;;;;;4.48;100.00;99377.69;4817727;59;1136660;-73
2023/01/15 19:28:07;;;;;;;11.48;4.12;;;;;;;4.47;100.00;99386.02;4914445;58;1134825;-69
2023/01/15 19:33:13;;;;;;;11.10;3.43;;;;;;;4.46;100.00;99383.03;4936707;58;1136764;-71
2023/01/15 19:38:19;;;;;;;15.40;4.70;;;;;;;4.42;100.00;99372.43;4917016;57;1136803;-72
2023/01/15 19:54:11;;;;;;;;;;;;;;;4.30;100.00;99383.73;4858152;59;1136664;-78
2023/01/15 19:59:18;;;;;;;14.33;5.47;;;;;;;4.29;100.00;99386.45;4851354;59;971944;-75
2023/01/15 20:04:24;;;;;;;9.88;4.08;;;;;;;4.26;100.00;99389.31;4885340;58;1134642;-71
2023/01/15 20:09:30;;;;;;;6.13;3.23;;;;;;;4.24;100.00;99391.56;4981097;56;1134473;-74
2023/01/15 20:14:36;;;;;;;12.33;4.00;;;;;;;4.20;100.00;99391.87;4948971;57;1134497;-73
2023/01/15 20:19:42;;;;;;;19.20;9.17;;;;;;;4.18;100.00;99390.67;4994763;57;1136622;-74
2023/01/15 20:24:48;;;;;;;5.50;2.17;;;;;;;4.17;100.00;99392.08;4988033;57;1136585;-73
2023/01/15 20:35:10;;;;;;;6.03;2.10;;;;;;;4.12;100.00;99398.13;4967134;57;1134695;-69
2023/01/15 20:40:24;;;;;;;4.94;1.96;;;;;;;4.15;100.00;99371.72;4992904;57;1134897;-73
2023/01/15 20:45:30;;;;;;;6.50;2.15;;;;;;;4.17;100.00;99370.67;4935302;57;1134754;-71
2023/01/15 20:50:39;;;;;;;7.27;2.30;;;;;;;4.17;100.00;99384.23;4923566;58;1134532;-70
2023/01/15 20:55:46;;;;;;;4.00;1.50;;;;;;;4.20;100.00;99387.95;4968905;57;1134704;-76
2023/01/15 21:00:55;;;;;;;5.57;2.13;;;;;;;4.17;100.00;99393.39;4933180;57;1134556;-73
2023/01/15 21:06:00;;;;;;;2.70;1.30;;;;;;;4.15;100.00;99378.27;4993596;57;1134682;-74
2023/01/15 21:11:06;;;;;;;4.93;2.20;;;;;;;4.13;100.00;99393.23;4965735;57;1134427;-80
2023/01/15 21:16:15;;;;;;;3.53;2.20;;;;;;;4.13;100.00;99387.52;4927897;57;1134781;-77
2023/01/15 21:21:21;;;;;;;7.90;3.30;;;;;;;4.09;100.00;99390.01;4926221;57;1134589;-78
2023/01/15 21:26:27;;;;;;;5.27;2.33;;;;;;;4.09;100.00;99391.78;4964290;57;1134578;-75
2023/01/15 21:31:33;;;;;;;9.83;3.10;;;;;;;4.05;100.00;99392.93;4935442;57;1134739;-75
2023/01/15 21:36:39;;;;;;;9.05;2.85;;;;;;;4.02;100.00;99392.66;4999290;57;1134584;-71
2023/01/15 21:47:15;;;;;;;3.80;1.57;;;;;;;3.99;100.00;99409.88;4952974;57;1134533;-74
2023/01/15 21:52:22;;;;;;;4.87;2.13;;;;;;;3.97;100.00;99405.25;4945879;57;1134880;-72
2023/01/15 21:57:30;;;;;;;2.87;1.67;;;;;;;3.97;100.00;99401.80;4960525;57;1134747;-71
2023/01/15 22:02:36;;;;;;;3.42;1.42;;;;;;;3.91;100.00;99400.89;4942059;57;1134560;-75
2023/01/15 22:07:55;;;;;;;8.80;2.60;;;;;;;3.88;100.00;99414.53;4955091;57;1134651;-70
2023/01/15 22:13:00;;;;;;;3.90;1.75;;;;;;;3.91;100.00;99404.34;4936781;57;1134451;-71
2023/01/15 22:18:06;;;;;;;4.07;1.40;;;;;;;3.88;100.00;99396.23;4956682;57;1134463;-77
2023/01/15 22:23:12;;;;;;;4.80;1.43;;;;;;;3.91;100.00;99387.81;4947618;56;1134613;-72
2023/01/15 22:28:17;;;;;;;9.03;2.00;;;;;;;3.90;100.00;99394.81;4931902;57;1134817;-72
2023/01/15 22:33:23;;;;;;;8.55;1.70;;;;;;;3.88;100.00;99384.45;4953759;57;1134627;-80
2023/01/15 22:38:30;;;;;;;2.47;1.10;;;;;;;3.87;100.00;99380.63;4937755;57;1134638;-76
2023/01/15 22:43:36;;;;;;;2.60;1.13;;;;;;;3.86;100.00;99367.19;4953954;57;1134588;-73
2023/01/15 22:48:42;;;;;;;7.57;1.80;;;;;;;3.85;100.00;99376.81;4930978;58;1134524;-73
2023/01/15 22:53:48;;;;;;;2.60;1.03;;;;;;;3.86;100.00;99360.66;4912220;57;1134501;-74
2023/01/15 22:58:55;;;;;;;8.08;1.42;;;;;;;3.86;100.00;99354.95;4881119;58;1134488;-76
2023/01/15 23:04:01;;;;;;;3.67;0.90;;;;;;;3.86;100.00;99369.34;4756724;59;1134604;-71
2023/01/15 23:09:09;;;;;;;1.07;0.80;;;;;;;3.85;100.00;99358.50;4833652;59;1134564;-76
2023/01/15 23:14:15;;;;;;;1.13;0.80;;;;;;;3.85;100.00;99378.13;4924584;57;1134652;-72
2023/01/15 23:19:23;;;;;;;2.03;1.00;;;;;;;3.83;100.00;99360.38;4906326;57;1134650;-74
2023/01/15 23:24:29;;;;;;;5.12;1.40;;;;;;;3.81;100.00;99349.22;4878677;57;1134738;-76
2023/01/15 23:29:34;;;;;;;1.98;1.40;;;;;;;3.75;100.00;99341.78;5006057;57;1134897;-76
2023/01/15 23:34:40;;;;;;;2.50;1.27;;;;;;;3.71;100.00;99341.62;4952242;57;1134926;-72
2023/01/15 23:39:46;;;;;;;1.10;0.80;;;;;;;3.70;100.00;99343.02;4944177;58;1134430;-78
2023/01/15 23:50:15;;;;;;;4.03;1.03;;;;;;;3.65;100.00;99329.45;4913028;58;1134601;-76
2023/01/15 23:55:21;;;;;;;0.90;0.90;;;;;;;3.65;100.00;99329.45;4932002;58;1135025;-78
